Time;durP1;ratioP1;P1;durP2;ratioP2;P2;SDS_P1;SDS_P2;PMS_P1;PMS_P2;Temp;Humidity;BMP_temperature;BMP_pressure;BME280_temperature;BME280_humidity;BME280_pressure;Samples;Min_cycle;Max_cycle;Signal;HPM_P1;HPM_P2
2023/09/01 00:00:12;;;;;;;1.92;1.13;;;21.60;66.70;;;;;;5094032;28;20190;-62
2023/09/01 00:02:40;;;;;;;3.42;1.42;;;21.50;66.50;;;;;;5093796;28;20657;-61
2023/09/01 00:05:07;;;;;;;1.65;1.13;;;21.50;66.60;;;;;;5093546;28;20396;-60
2023/09/01 00:07:35;;;;;;;2.88;1.38;;;21.50;66.60;;;;;;5093796;28;20306;-61
2023/09/01 00:10:05;;;;;;;1.63;1.00;;;21.50;66.60;;;;;;5093663;28;20653;-62
2023/09/01 00:12:32;;;;;;;2.00;1.20;;;21.50;66.60;;;;;;5093728;28;20654;-59
2023/09/01 00:14:59;;;;;;;2.75;1.42;;;21.50;66.60;;;;;;5093763;28;20644;-62
2023/09/01 00:17:26;;;;;;;2.20;1.20;;;21.50;66.60;;;;;;5093538;28;20773;-62
2023/09/01 00:19:53;;;;;;;2.42;1.10;;;21.50;66.60;;;;;;5093569;28;20182;-62
2023/09/01 00:22:21;;;;;;;1.20;1.10;;;21.50;66.70;;;;;;5093757;28;20218;-62
2023/09/01 00:24:48;;;;;;;2.95;1.38;;;21.50;66.70;;;;;;5093295;28;20214;-62
2023/09/01 00:27:16;;;;;;;2.33;1.40;;;21.50;66.70;;;;;;5093897;28;20598;-63
2023/09/01 00:29:43;;;;;;;2.95;1.30;;;21.50;66.70;;;;;;5093265;28;20205;-61
2023/09/01 00:32:11;;;;;;;2.55;1.20;;;21.50;66.70;;;;;;5093712;28;20780;-62
2023/09/01 00:34:38;;;;;;;2.13;0.90;;;21.50;66.80;;;;;;5093509;28;20187;-63
2023/09/01 00:37:05;;;;;;;3.05;1.30;;;21.50;66.70;;;;;;5093498;28;20210;-58
2023/09/01 00:39:42;;;;;;;2.83;1.42;;;21.50;66.80;;;;;;5092919;28;20186;-61
2023/09/01 00:42:10;;;;;;;2.10;1.35;;;21.50;66.80;;;;;;5057811;28;20229;-60
2023/09/01 00:44:39;;;;;;;3.03;1.30;;;21.40;66.70;;;;;;5093348;28;20229;-58
2023/09/01 00:47:07;;;;;;;2.97;1.35;;;21.40;66.80;;;;;;5093447;28;20249;-59
2023/09/01 00:49:36;;;;;;;1.55;1.08;;;21.50;66.80;;;;;;5093180;28;20182;-58
2023/09/01 00:52:28;;;;;;;1.85;1.00;;;21.50;66.90;;;;;;5093011;28;20297;-59
2023/09/01 00:54:56;;;;;;;3.70;1.17;;;21.50;67.10;;;;;;5073745;28;20576;-57
2023/09/01 00:57:42;;;;;;;2.75;1.20;;;21.50;66.90;;;;;;5092955;28;20783;-58
2023/09/01 01:00:12;;;;;;;3.25;1.27;;;21.40;66.80;;;;;;5092786;28;20197;-60
2023/09/01 01:02:39;;;;;;;1.92;1.00;;;21.50;67.10;;;;;;5092590;28;20222;-59
2023/09/01 01:05:14;;;;;;;4.53;1.10;;;21.50;67.00;;;;;;5092394;28;20260;-59
2023/09/01 01:07:47;;;;;;;2.17;1.27;;;21.50;67.00;;;;;;5092996;28;20270;-57
2023/09/01 01:10:20;;;;;;;1.73;1.08;;;21.40;66.90;;;;;;5092823;28;20276;-59
2023/09/01 01:12:52;;;;;;;4.05;1.38;;;21.40;66.90;;;;;;5092639;28;20192;-60
2023/09/01 01:15:22;;;;;;;3.30;1.33;;;21.50;67.10;;;;;;5092802;28;20197;-59
2023/09/01 01:17:52;;;;;;;2.50;1.48;;;21.40;67.10;;;;;;5092288;28;20817;-59
2023/09/01 01:20:34;;;;;;;2.92;1.23;;;21.50;67.10;;;;;;5092897;28;20280;-55
2023/09/01 01:23:09;;;;;;;2.63;1.10;;;21.50;67.20;;;;;;5092351;28;20273;-60
2023/09/01 01:25:37;;;;;;;2.42;1.30;;;21.50;67.20;;;;;;5092440;28;20249;-60
2023/09/01 01:28:08;;;;;;;2.05;1.30;;;21.50;67.20;;;;;;5091869;28;20182;-56
2023/09/01 01:30:36;;;;;;;3.50;1.40;;;21.50;67.20;;;;;;5092431;28;20273;-58
2023/09/01 01:33:04;;;;;;;3.78;1.42;;;21.50;67.30;;;;;;5092360;28;20186;-60
2023/09/01 01:35:38;;;;;;;3.20;1.10;;;21.40;67.30;;;;;;5092521;28;20248;-61
2023/09/01 01:38:15;;;;;;;1.75;1.25;;;21.50;67.20;;;;;;5092429;28;20190;-58
2023/09/01 01:40:46;;;;;;;2.90;1.30;;;21.40;67.30;;;;;;5092184;28;20213;-60
2023/09/01 01:43:17;;;;;;;1.92;1.08;;;21.40;67.30;;;;;;5091982;28;20222;-60
2023/09/01 01:45:46;;;;;;;1.67;1.20;;;21.40;67.20;;;;;;5092587;28;20233;-58
2023/09/01 01:48:14;;;;;;;3.05;1.45;;;21.40;67.30;;;;;;5092329;28;20189;-61
2023/09/01 01:50:41;;;;;;;2.45;1.20;;;21.40;67.40;;;;;;5092294;28;20190;-61
2023/09/01 01:53:12;;;;;;;2.63;1.35;;;21.40;67.40;;;;;;5092524;28;20240;-59
2023/09/01 01:55:40;;;;;;;2.42;1.00;;;21.40;67.30;;;;;;5092407;28;20579;-60
2023/09/01 01:58:07;;;;;;;1.52;1.10;;;21.40;67.40;;;;;;5092321;28;20189;-60
2023/09/01 02:00:35;;;;;;;3.97;1.30;;;21.40;67.30;;;;;;5091994;28;20272;-61
2023/09/01 02:03:03;;;;;;;1.90;1.27;;;21.40;67.40;;;;;;5092127;28;20277;-58
2023/09/01 02:05:30;;;;;;;2.55;1.13;;;21.40;67.40;;;;;;5091552;28;20237;-57
2023/09/01 02:07:57;;;;;;;3.40;1.48;;;21.40;67.40;;;;;;5092295;28;20281;-57
2023/09/01 02:10:26;;;;;;;1.42;0.90;;;21.50;67.50;;;;;;5092289;28;20200;-60
2023/09/01 02:12:54;;;;;;;2.80;1.33;;;21.40;67.40;;;;;;5092037;28;20200;-60
2023/09/01 02:15:28;;;;;;;1.55;1.10;;;21.40;67.40;;;;;;5092198;28;20194;-59
2023/09/01 02:17:59;;;;;;;2.15;1.10;;;21.40;67.40;;;;;;5091904;28;20193;-60
2023/09/01 02:20:40;;;;;;;3.35;1.45;;;21.40;67.40;;;;;;5091696;28;20186;-57
2023/09/01 02:23:08;;;;;;;1.90;1.00;;;21.40;67.40;;;;;;5092075;28;20202;-59
2023/09/01 02:25:39;;;;;;;2.13;1.30;;;21.40;67.40;;;;;;5112442;28;20217;-60
2023/09/01 02:28:07;;;;;;;3.17;1.20;;;21.40;67.40;;;;;;5111904;28;20197;-60
2023/09/01 02:30:34;;;;;;;2.28;1.10;;;21.40;67.40;;;;;;5112409;28;20285;-58
2023/09/01 02:33:02;;;;;;;1.65;1.20;;;21.50;67.50;;;;;;5112509;28;20193;-62
2023/09/01 02:35:29;;;;;;;1.63;1.30;;;21.40;67.40;;;;;;5111876;28;20656;-58
2023/09/01 02:37:56;;;;;;;2.40;1.00;;;21.40;67.40;;;;;;5112460;28;20190;-60
2023/09/01 02:40:24;;;;;;;3.67;1.17;;;21.40;67.40;;;;;;5112435;28;20185;-60
2023/09/01 02:42:53;;;;;;;2.17;1.05;;;21.40;67.40;;;;;;5111860;28;20217;-60
2023/09/01 02:45:37;;;;;;;2.22;1.30;;;21.40;67.40;;;;;;5112255;28;20218;-60
2023/09/01 02:48:05;;;;;;;1.75;1.00;;;21.40;67.40;;;;;;5112137;28;20279;-57
2023/09/01 02:50:33;;;;;;;2.80;1.20;;;21.40;67.40;;;;;;5111985;28;20186;-59
2023/09/01 02:53:00;;;;;;;2.33;1.25;;;21.40;67.40;;;;;;5112298;28;20558;-59
2023/09/01 02:55:28;;;;;;;3.50;1.40;;;21.30;67.30;;;;;;5116104;28;20185;-60
2023/09/01 02:57:57;;;;;;;2.03;1.30;;;21.40;67.40;;;;;;5116037;28;20185;-57
2023/09/01 03:00:24;;;;;;;1.52;1.00;;;21.40;67.40;;;;;;5116066;28;20189;-60
2023/09/01 03:02:52;;;;;;;1.85;1.00;;;21.40;67.40;;;;;;5116301;28;20300;-60
2023/09/01 03:05:20;;;;;;;1.23;1.00;;;21.40;67.40;;;;;;5115463;28;20244;-60
2023/09/01 03:07:47;;;;;;;1.80;1.10;;;21.40;67.40;;;;;;5115827;28;20228;-59
2023/09/01 03:10:15;;;;;;;2.25;1.00;;;21.40;67.40;;;;;;5115842;28;20735;-60
2023/09/01 03:12:42;;;;;;;1.83;1.08;;;21.40;67.40;;;;;;5115740;28;20223;-59
2023/09/01 03:15:12;;;;;;;1.33;0.90;;;21.40;67.40;;;;;;5115603;28;20193;-61
2023/09/01 03:17:40;;;;;;;1.33;0.90;;;21.40;67.40;;;;;;5115815;28;20225;-61
2023/09/01 03:20:10;;;;;;;1.27;0.98;;;21.30;67.40;;;;;;5115518;28;20201;-59
2023/09/01 03:22:38;;;;;;;2.00;1.17;;;21.30;67.30;;;;;;5115875;28;20306;-60
2023/09/01 03:25:09;;;;;;;2.05;1.00;;;21.40;67.50;;;;;;5115508;28;20185;-59
2023/09/01 03:27:37;;;;;;;2.25;1.25;;;21.30;67.30;;;;;;5115388;28;20209;-60
2023/09/01 03:30:06;;;;;;;1.40;1.08;;;21.40;67.50;;;;;;5115519;28;20181;-58
2023/09/01 03:32:35;;;;;;;1.30;1.08;;;21.40;67.50;;;;;;5115588;28;20282;-61
2023/09/01 03:35:04;;;;;;;3.42;1.30;;;21.30;67.40;;;;;;5115277;28;20181;-61
2023/09/01 03:37:43;;;;;;;1.75;1.23;;;21.30;67.40;;;;;;5115276;28;20230;-55
2023/09/01 03:40:12;;;;;;;1.20;1.02;;;21.40;67.50;;;;;;5115386;28;20280;-61
2023/09/01 03:42:40;;;;;;;1.65;0.98;;;21.40;67.50;;;;;;5114602;28;20221;-58
2023/09/01 03:45:08;;;;;;;1.70;0.95;;;21.30;67.40;;;;;;5115238;28;20238;-61
2023/09/01 03:47:37;;;;;;;2.03;1.00;;;21.30;67.40;;;;;;5114717;28;20213;-60
2023/09/01 03:50:06;;;;;;;2.28;1.13;;;21.30;67.40;;;;;;5114840;28;20190;-59
2023/09/01 03:52:33;;;;;;;1.98;1.05;;;21.30;67.40;;;;;;5115031;28;20224;-61
2023/09/01 03:55:01;;;;;;;1.50;0.80;;;21.40;67.50;;;;;;5115064;28;20190;-58
2023/09/01 03:57:28;;;;;;;3.20;1.20;;;21.40;67.50;;;;;;5114775;28;20215;-61
2023/09/01 03:59:56;;;;;;;2.65;1.08;;;21.40;67.50;;;;;;5114952;28;20185;-59
2023/09/01 04:02:24;;;;;;;2.45;0.80;;;21.30;67.40;;;;;;5114814;28;20213;-56
2023/09/01 04:04:52;;;;;;;1.75;1.00;;;21.30;67.40;;;;;;5113871;28;20224;-57
2023/09/01 04:07:20;;;;;;;1.60;1.00;;;21.40;67.50;;;;;;5114723;28;20236;-62
2023/09/01 04:09:50;;;;;;;2.40;1.10;;;21.30;67.40;;;;;;5114809;28;20309;-60
2023/09/01 04:12:17;;;;;;;2.22;1.10;;;21.40;67.50;;;;;;5114446;28;20296;-61
2023/09/01 04:14:45;;;;;;;1.83;0.95;;;21.30;67.40;;;;;;5114368;28;20196;-59
2023/09/01 04:17:12;;;;;;;2.63;1.10;;;21.30;67.40;;;;;;5114583;28;20213;-61
2023/09/01 04:19:39;;;;;;;1.08;0.82;;;21.30;67.40;;;;;;5114424;28;20193;-61
2023/09/01 04:22:08;;;;;;;1.48;0.90;;;21.40;67.50;;;;;;5114318;28;20213;-60
2023/09/01 04:24:36;;;;;;;1.92;0.82;;;21.30;67.40;;;;;;5114537;28;20185;-56
2023/09/01 04:27:03;;;;;;;1.40;1.00;;;21.30;67.40;;;;;;5114175;28;20297;-55
2023/09/01 04:29:31;;;;;;;1.88;0.90;;;21.30;67.40;;;;;;5114393;28;20195;-60
2023/09/01 04:31:58;;;;;;;1.15;0.80;;;21.30;67.40;;;;;;5114366;28;20217;-60
2023/09/01 04:34:26;;;;;;;3.00;0.98;;;21.30;67.40;;;;;;5113739;28;20276;-59
2023/09/01 04:36:53;;;;;;;2.17;1.08;;;21.30;67.40;;;;;;5114230;28;20217;-60
2023/09/01 04:39:22;;;;;;;1.77;0.70;;;21.30;67.40;;;;;;5114227;28;20193;-60
2023/09/01 04:41:50;;;;;;;1.08;0.75;;;21.30;67.40;;;;;;5114000;28;20213;-59
2023/09/01 04:44:17;;;;;;;1.88;0.95;;;21.30;67.40;;;;;;5114077;28;20193;-61
2023/09/01 04:46:45;;;;;;;1.58;0.80;;;21.30;67.40;;;;;;5113940;28;20229;-60
2023/09/01 04:49:12;;;;;;;1.20;0.75;;;21.30;67.40;;;;;;5113779;28;20250;-61
2023/09/01 04:51:40;;;;;;;1.70;0.80;;;21.30;67.40;;;;;;5113991;28;20217;-58
2023/09/01 04:54:08;;;;;;;2.17;0.90;;;21.30;67.40;;;;;;5113782;28;20197;-56
2023/09/01 04:57:11;;;;;;;1.20;1.10;;;21.30;67.40;;;;;;5113585;28;20217;-59
2023/09/01 04:59:44;;;;;;;1.23;0.70;;;21.30;67.40;;;;;;5111532;28;20280;-61
2023/09/01 05:02:12;;;;;;;2.63;0.82;;;21.20;67.30;;;;;;5113664;28;20221;-58
2023/09/01 05:04:39;;;;;;;2.10;0.93;;;21.20;67.30;;;;;;5113236;28;20325;-61
2023/09/01 05:07:07;;;;;;;1.30;0.80;;;21.30;67.40;;;;;;5113651;28;20229;-58
2023/09/01 05:09:34;;;;;;;1.02;0.82;;;21.30;67.40;;;;;;5113334;28;20183;-61
2023/09/01 05:12:01;;;;;;;2.47;0.57;;;21.30;67.40;;;;;;5113321;28;20252;-60
2023/09/01 05:14:29;;;;;;;1.70;0.85;;;21.30;67.40;;;;;;5113513;28;20254;-59
2023/09/01 05:16:58;;;;;;;0.93;0.70;;;21.20;67.30;;;;;;5112738;28;20213;-62
2023/09/01 05:19:25;;;;;;;1.30;0.70;;;21.30;67.40;;;;;;5113210;28;20560;-62
2023/09/01 05:21:52;;;;;;;1.38;0.73;;;21.30;68.20;;;;;;5113110;28;20718;-63
2023/09/01 05:24:19;;;;;;;1.67;1.02;;;21.30;67.50;;;;;;5112928;28;20747;-61
2023/09/01 05:26:47;;;;;;;1.33;1.00;;;21.30;67.50;;;;;;5112967;28;20232;-62
2023/09/01 05:29:14;;;;;;;2.17;1.10;;;21.30;67.60;;;;;;5113182;28;20189;-64
2023/09/01 05:31:41;;;;;;;3.83;1.30;;;21.40;67.80;;;;;;5113251;28;20304;-62
2023/09/01 05:34:09;;;;;;;1.88;1.10;;;21.50;68.40;;;;;;5112926;28;20185;-63
2023/09/01 05:36:36;;;;;;;3.55;1.30;;;21.50;67.60;;;;;;5113042;28;20312;-61
2023/09/01 05:39:04;;;;;;;1.83;1.02;;;21.50;67.50;;;;;;5113116;28;20570;-63
2023/09/01 05:41:31;;;;;;;2.85;1.08;;;21.50;67.80;;;;;;5112434;28;20726;-64
2023/09/01 05:43:58;;;;;;;1.85;1.17;;;21.50;69.10;;;;;;5112957;28;20613;-63
2023/09/01 05:46:25;;;;;;;2.40;1.27;;;21.50;69.40;;;;;;5112514;28;20596;-60
2023/09/01 05:48:53;;;;;;;2.40;1.10;;;21.50;70.10;;;;;;5112746;28;20264;-63
2023/09/01 05:51:21;;;;;;;1.55;1.05;;;21.50;70.70;;;;;;5113010;28;20213;-63
2023/09/01 05:53:48;;;;;;;3.42;1.50;;;21.50;70.50;;;;;;5112750;28;20191;-63
2023/09/01 05:56:16;;;;;;;1.85;1.08;;;21.40;70.40;;;;;;5112579;28;20209;-63
2023/09/01 05:58:43;;;;;;;2.55;1.33;;;21.50;70.90;;;;;;5112592;28;20225;-62
2023/09/01 06:01:10;;;;;;;1.08;0.88;;;21.50;71.00;;;;;;5112825;28;20296;-61
2023/09/01 06:03:36;;;;;;;2.17;0.90;;;21.50;71.10;;;;;;5112002;28;20652;-60
2023/09/01 06:06:03;;;;;;;1.40;1.05;;;21.40;70.70;;;;;;5112649;28;20220;-63
2023/09/01 06:08:32;;;;;;;1.75;1.10;;;21.40;70.70;;;;;;5112782;28;20199;-61
2023/09/01 06:11:05;;;;;;;1.67;1.13;;;21.40;70.60;;;;;;5112463;28;20192;-62
2023/09/01 06:13:32;;;;;;;2.97;1.30;;;21.40;70.70;;;;;;5112248;28;20193;-63
2023/09/01 06:15:59;;;;;;;2.30;1.20;;;21.40;70.50;;;;;;5112598;28;20185;-63
2023/09/01 06:18:26;;;;;;;3.10;0.95;;;21.30;70.30;;;;;;5112127;28;20653;-64
2023/09/01 06:20:53;;;;;;;2.60;0.90;;;21.30;70.20;;;;;;5112609;28;20209;-63
2023/09/01 06:23:20;;;;;;;1.98;0.90;;;21.40;70.30;;;;;;5112149;28;20643;-63
2023/09/01 06:25:48;;;;;;;2.55;1.10;;;21.40;70.20;;;;;;5112187;28;20187;-64
2023/09/01 06:28:15;;;;;;;1.80;1.20;;;21.30;70.00;;;;;;5115024;28;20299;-63
2023/09/01 06:30:42;;;;;;;1.80;0.98;;;21.40;70.10;;;;;;5116537;28;20292;-59
2023/09/01 06:33:09;;;;;;;1.90;1.00;;;21.30;69.90;;;;;;5116588;28;20250;-63
2023/09/01 06:35:37;;;;;;;1.65;1.20;;;21.30;69.90;;;;;;5116660;28;20193;-61
2023/09/01 06:38:06;;;;;;;1.92;1.08;;;21.30;69.80;;;;;;5116474;28;20219;-61
2023/09/01 06:40:33;;;;;;;2.75;1.08;;;21.30;69.80;;;;;;5116030;28;20274;-63
2023/09/01 06:43:04;;;;;;;2.08;1.20;;;21.20;69.60;;;;;;5116131;28;20300;-63
2023/09/01 06:45:31;;;;;;;1.75;0.98;;;21.30;69.60;;;;;;5116156;28;20551;-63
2023/09/01 06:47:58;;;;;;;3.10;1.27;;;21.30;69.70;;;;;;5116262;28;20229;-63
2023/09/01 06:50:25;;;;;;;1.77;0.98;;;21.30;69.60;;;;;;5116324;28;20277;-63
2023/09/01 06:52:52;;;;;;;2.80;1.30;;;21.30;69.60;;;;;;5116371;28;20217;-63
2023/09/01 06:55:19;;;;;;;2.15;1.10;;;21.30;69.60;;;;;;5113818;28;20715;-64
2023/09/01 06:57:46;;;;;;;1.45;1.17;;;21.20;69.40;;;;;;5101707;28;20809;-63
2023/09/01 07:00:16;;;;;;;1.60;0.95;;;21.20;69.40;;;;;;5097627;28;20189;-61
2023/09/01 07:02:44;;;;;;;1.70;1.23;;;21.20;69.30;;;;;;5093574;28;20664;-61
2023/09/01 07:05:11;;;;;;;2.50;1.27;;;21.30;69.40;;;;;;5097298;28;20229;-61
2023/09/01 07:07:39;;;;;;;2.35;1.27;;;21.30;69.40;;;;;;5088163;28;20245;-60
2023/09/01 07:10:07;;;;;;;1.58;1.10;;;21.30;69.30;;;;;;5100575;28;20268;-60
2023/09/01 07:12:35;;;;;;;1.30;1.00;;;21.30;69.20;;;;;;5113641;28;20217;-62
2023/09/01 07:15:04;;;;;;;2.83;0.90;;;21.30;69.10;;;;;;5114081;28;20232;-62
2023/09/01 07:17:33;;;;;;;3.40;1.38;;;21.40;69.10;;;;;;5114687;28;20584;-61
2023/09/01 07:20:00;;;;;;;2.67;1.08;;;21.40;68.90;;;;;;5113416;28;20630;-62
2023/09/01 07:22:28;;;;;;;3.25;1.10;;;21.50;69.00;;;;;;5107808;28;20299;-60
2023/09/01 07:24:56;;;;;;;4.20;1.00;;;21.40;68.90;;;;;;5103987;28;20208;-63
2023/09/01 07:27:23;;;;;;;2.80;1.33;;;21.50;69.00;;;;;;5106348;28;20237;-60
2023/09/01 07:32:33;;;;;;;4.28;1.05;;;21.60;69.20;;;;;;5112208;28;20236;-62
2023/09/01 07:35:03;;;;;;;4.03;1.10;;;21.60;69.10;;;;;;5113058;28;20250;-59
2023/09/01 07:37:30;;;;;;;1.02;0.88;;;21.60;69.10;;;;;;5095664;28;20214;-61
2023/09/01 07:40:03;;;;;;;1.65;1.15;;;21.60;69.80;;;;;;5109073;28;20204;-62
2023/09/01 07:42:40;;;;;;;2.03;1.25;;;21.60;69.00;;;;;;5104738;28;20296;-61
2023/09/01 07:45:10;;;;;;;2.75;1.35;;;21.70;69.00;;;;;;5105424;28;20297;-60
2023/09/01 07:47:39;;;;;;;1.70;1.23;;;21.70;68.90;;;;;;5108458;28;20240;-63
2023/09/01 07:50:07;;;;;;;1.60;1.10;;;21.70;68.90;;;;;;5113940;28;20193;-61
2023/09/01 07:52:35;;;;;;;6.13;1.02;;;21.70;68.80;;;;;;5112850;28;20228;-63
2023/09/01 07:55:05;;;;;;;1.48;1.30;;;21.70;68.70;;;;;;5111431;28;20228;-60
2023/09/01 07:57:32;;;;;;;2.42;1.13;;;21.80;68.70;;;;;;5111495;28;20263;-60
2023/09/01 08:00:00;;;;;;;4.07;1.30;;;21.80;68.60;;;;;;5109562;28;20239;-62
2023/09/01 08:02:29;;;;;;;2.35;1.15;;;21.80;68.60;;;;;;5110636;28;20217;-60
2023/09/01 08:04:57;;;;;;;7.32;1.20;;;21.80;68.40;;;;;;5113621;28;20225;-58
2023/09/01 08:07:25;;;;;;;3.35;1.15;;;21.90;68.40;;;;;;5108608;28;20284;-60
2023/09/01 08:09:52;;;;;;;1.63;1.05;;;21.90;68.20;;;;;;5110564;28;20189;-61
2023/09/01 08:12:23;;;;;;;2.97;1.25;;;21.90;68.50;;;;;;5100621;28;20300;-62
2023/09/01 08:14:51;;;;;;;2.40;1.20;;;22.00;68.20;;;;;;5100060;28;20204;-62
2023/09/01 08:17:22;;;;;;;2.25;1.10;;;22.00;68.10;;;;;;5104296;28;20217;-60
2023/09/01 08:19:50;;;;;;;2.33;1.08;;;22.00;68.10;;;;;;5105579;28;20197;-58
2023/09/01 08:22:19;;;;;;;1.65;0.93;;;22.10;68.20;;;;;;5112868;28;20228;-57
2023/09/01 08:24:47;;;;;;;2.53;1.10;;;22.10;68.20;;;;;;5110959;28;20213;-60
2023/09/01 08:27:14;;;;;;;2.83;1.08;;;22.00;68.10;;;;;;5109868;28;20236;-59
2023/09/01 08:29:41;;;;;;;2.95;1.10;;;22.10;68.10;;;;;;5112959;28;20276;-61
2023/09/01 08:32:10;;;;;;;3.05;1.33;;;22.10;68.10;;;;;;5112571;28;20653;-63
2023/09/01 08:34:38;;;;;;;2.65;1.30;;;22.10;68.00;;;;;;5113204;28;20197;-60
2023/09/01 08:37:05;;;;;;;3.83;1.17;;;22.10;68.00;;;;;;5112234;28;20243;-60
2023/09/01 08:39:34;;;;;;;2.42;1.20;;;22.10;67.80;;;;;;5113035;28;20336;-60
2023/09/01 08:42:03;;;;;;;1.65;1.05;;;22.10;67.80;;;;;;5113338;28;20217;-58
2023/09/01 08:44:35;;;;;;;2.80;1.33;;;22.10;67.70;;;;;;5112943;28;20205;-59
2023/09/01 08:47:03;;;;;;;1.48;0.95;;;22.10;67.60;;;;;;5108055;28;20233;-59
2023/09/01 08:49:30;;;;;;;2.47;1.00;;;22.20;67.70;;;;;;5113329;27;20587;-57
2023/09/01 08:51:59;;;;;;;1.70;1.02;;;22.10;67.50;;;;;;5112486;28;20274;-59
2023/09/01 08:54:28;;;;;;;3.05;1.40;;;22.10;67.50;;;;;;5112585;28;20200;-56
2023/09/01 08:56:57;;;;;;;2.10;1.45;;;22.10;67.40;;;;;;5112302;28;20232;-57
2023/09/01 08:59:28;;;;;;;1.48;1.17;;;22.20;67.40;;;;;;5112904;28;20228;-58
2023/09/01 09:01:55;;;;;;;3.38;1.50;;;22.10;67.20;;;;;;5106336;28;20196;-57
2023/09/01 09:04:32;;;;;;;1.85;1.00;;;22.10;67.20;;;;;;5112499;28;20311;-59
2023/09/01 09:07:35;;;;;;;2.85;1.40;;;22.20;67.20;;;;;;5108280;28;20241;-55
2023/09/01 09:10:04;;;;;;;4.70;1.52;;;22.20;67.10;;;;;;5106239;28;20261;-59
2023/09/01 09:12:41;;;;;;;1.63;1.10;;;22.20;67.10;;;;;;5112276;28;20217;-59
2023/09/01 09:15:09;;;;;;;3.20;1.17;;;22.20;66.90;;;;;;5112332;28;20279;-60
2023/09/01 09:17:43;;;;;;;2.78;1.10;;;22.20;66.80;;;;;;5111887;28;20229;-55
2023/09/01 09:20:11;;;;;;;2.90;1.23;;;22.20;66.80;;;;;;5096392;28;20277;-56
2023/09/01 09:22:52;;;;;;;2.50;1.00;;;22.20;66.70;;;;;;5107408;28;20259;-58
2023/09/01 09:25:28;;;;;;;1.40;1.05;;;22.30;66.70;;;;;;5111941;28;20235;-59
2023/09/01 09:28:00;;;;;;;1.23;1.10;;;22.30;66.60;;;;;;5095665;28;20326;-59
2023/09/01 09:30:28;;;;;;;3.00;1.40;;;22.30;66.60;;;;;;5091379;28;20198;-59
2023/09/01 09:33:04;;;;;;;2.42;1.15;;;22.30;66.50;;;;;;5103722;28;20227;-59
2023/09/01 09:35:34;;;;;;;2.67;1.10;;;22.30;66.40;;;;;;5111189;28;20257;-58
2023/09/01 09:38:02;;;;;;;1.30;1.10;;;22.30;67.00;;;;;;5108131;28;20257;-59
2023/09/01 09:40:30;;;;;;;9.93;1.23;;;22.30;66.10;;;;;;5112130;28;20680;-59
2023/09/01 09:43:00;;;;;;;4.57;1.30;;;22.30;66.10;;;;;;5080606;28;20218;-57
2023/09/01 09:45:31;;;;;;;4.30;1.20;;;22.30;66.00;;;;;;5104179;28;20197;-59
2023/09/01 09:48:01;;;;;;;1.75;1.00;;;22.30;66.00;;;;;;5111613;28;20575;-59
2023/09/01 09:50:30;;;;;;;1.63;1.10;;;22.30;66.00;;;;;;5111156;28;20204;-59
2023/09/01 09:53:02;;;;;;;1.75;0.98;;;22.30;65.90;;;;;;5097413;28;20229;-58
2023/09/01 09:55:31;;;;;;;2.40;1.15;;;22.30;65.90;;;;;;5107547;28;20204;-60
2023/09/01 09:58:05;;;;;;;1.10;0.90;;;22.30;65.80;;;;;;5108370;28;20236;-59
2023/09/01 10:00:36;;;;;;;3.65;1.05;;;22.30;65.80;;;;;;5093680;28;20212;-57
2023/09/01 10:03:05;;;;;;;1.25;1.08;;;22.40;65.80;;;;;;5110742;28;20213;-58
2023/09/01 10:05:33;;;;;;;1.50;1.10;;;22.40;65.70;;;;;;5110458;28;20328;-58
2023/09/01 10:08:04;;;;;;;4.03;1.33;;;22.40;65.60;;;;;;5108370;28;20232;-58
2023/09/01 10:10:34;;;;;;;2.97;1.00;;;22.30;65.50;;;;;;5111697;28;20208;-58
2023/09/01 10:13:07;;;;;;;2.35;1.02;;;22.40;65.50;;;;;;5098951;28;20600;-59
2023/09/01 10:15:37;;;;;;;1.70;1.00;;;22.40;65.50;;;;;;5106472;28;20200;-57
2023/09/01 10:18:08;;;;;;;2.17;1.25;;;22.40;66.10;;;;;;5108028;28;20731;-57
2023/09/01 10:20:37;;;;;;;1.60;1.13;;;22.40;65.60;;;;;;5111457;28;20661;-59
2023/09/01 10:23:11;;;;;;;1.58;1.00;;;22.40;65.20;;;;;;5110989;28;20225;-56
2023/09/01 10:25:39;;;;;;;1.85;1.20;;;22.40;65.20;;;;;;5104475;28;20223;-57
2023/09/01 10:31:23;;;;;;;1.65;1.15;;;22.40;65.00;;;;;;5029503;28;20574;-58
2023/09/01 10:34:18;;;;;;;1.98;1.23;;;22.40;64.80;;;;;;5098900;28;20257;-56
2023/09/01 10:36:46;;;;;;;0.88;0.85;;;22.40;64.70;;;;;;5099633;28;20295;-58
2023/09/01 10:39:24;;;;;;;1.10;0.95;;;22.40;64.70;;;;;;5103403;28;20300;-55
2023/09/01 10:42:02;;;;;;;1.42;1.10;;;22.40;64.70;;;;;;5102330;28;20200;-57
2023/09/01 10:45:11;;;;;;;2.35;0.90;;;22.40;64.70;;;;;;5106833;28;20205;-59
2023/09/01 10:47:51;;;;;;;1.75;1.10;;;22.40;64.60;;;;;;5032250;28;20293;-58
2023/09/01 10:50:36;;;;;;;2.67;1.17;;;22.40;64.70;;;;;;5047252;28;20199;-57
2023/09/01 10:53:29;;;;;;;2.25;0.88;;;22.40;64.70;;;;;;5034146;28;20224;-57
2023/09/01 10:56:14;;;;;;;1.15;0.93;;;22.40;64.50;;;;;;5034370;28;20231;-57
2023/09/01 10:58:53;;;;;;;2.28;0.98;;;22.30;64.40;;;;;;5042340;28;20265;-58
2023/09/01 11:01:49;;;;;;;1.27;0.82;;;22.30;64.50;;;;;;5041063;28;20196;-59
2023/09/01 11:04:32;;;;;;;2.17;1.00;;;22.30;64.40;;;;;;5037137;28;20250;-57
2023/09/01 11:07:13;;;;;;;2.05;1.05;;;22.30;64.30;;;;;;5040476;28;20270;-58
2023/09/01 11:09:56;;;;;;;2.10;1.00;;;22.40;64.40;;;;;;5046241;28;20251;-58
2023/09/01 11:12:33;;;;;;;2.72;1.45;;;22.30;64.30;;;;;;5043114;28;20674;-58
2023/09/01 11:15:06;;;;;;;2.65;1.15;;;22.30;64.20;;;;;;5047105;28;20275;-58
2023/09/01 11:17:49;;;;;;;1.45;0.95;;;22.30;64.20;;;;;;5055662;28;20278;-59
2023/09/01 11:20:29;;;;;;;1.13;1.02;;;22.30;64.20;;;;;;5076908;28;20695;-58
2023/09/01 11:23:01;;;;;;;1.40;1.15;;;22.30;64.20;;;;;;5113576;28;20368;-58
2023/09/01 11:25:29;;;;;;;2.45;1.00;;;22.30;64.20;;;;;;5113609;27;20284;-58
2023/09/01 11:27:56;;;;;;;0.95;0.80;;;22.20;64.00;;;;;;5112996;28;20228;-58
2023/09/01 11:30:24;;;;;;;1.52;0.95;;;22.20;64.00;;;;;;5113569;28;20201;-58
2023/09/01 11:32:53;;;;;;;6.60;1.30;;;22.30;64.10;;;;;;5112630;28;20220;-59
2023/09/01 11:35:27;;;;;;;1.92;0.98;;;22.30;64.10;;;;;;5113014;28;20193;-59
2023/09/01 11:37:55;;;;;;;1.30;1.20;;;22.30;64.10;;;;;;5110512;28;20220;-59
2023/09/01 11:40:24;;;;;;;1.50;1.05;;;22.30;64.10;;;;;;5113635;28;20201;-58
2023/09/01 11:42:52;;;;;;;3.00;1.13;;;22.30;64.10;;;;;;5110736;27;20700;-57
2023/09/01 11:45:21;;;;;;;2.83;1.00;;;22.20;64.00;;;;;;5112716;28;20200;-58
2023/09/01 11:48:00;;;;;;;5.60;1.10;;;22.30;64.10;;;;;;5101292;28;20323;-58
2023/09/01 11:50:27;;;;;;;3.38;1.00;;;22.20;64.00;;;;;;5110650;28;20220;-58
2023/09/01 11:53:07;;;;;;;1.35;1.00;;;22.20;64.00;;;;;;5108826;28;20266;-55
2023/09/01 11:55:37;;;;;;;2.58;1.20;;;22.30;64.20;;;;;;5112248;28;20224;-59
2023/09/01 11:58:04;;;;;;;1.55;1.00;;;22.30;64.20;;;;;;5109922;28;20217;-59
2023/09/01 12:00:38;;;;;;;2.78;1.15;;;22.30;64.10;;;;;;5111966;28;20236;-58
2023/09/01 12:03:07;;;;;;;2.55;1.00;;;22.30;64.10;;;;;;5100804;28;20221;-57
2023/09/01 12:08:31;;;;;;;1.70;1.10;;;22.30;64.00;;;;;;5049255;28;20230;-56
2023/09/01 12:11:23;;;;;;;2.58;1.00;;;22.40;64.10;;;;;;4993970;28;20243;-57
2023/09/01 12:13:54;;;;;;;1.27;1.00;;;22.30;63.90;;;;;;5044529;28;20218;-56
2023/09/01 12:16:30;;;;;;;2.05;0.85;;;22.40;63.90;;;;;;5055489;28;20706;-58
2023/09/01 12:19:04;;;;;;;1.60;0.88;;;22.40;63.90;;;;;;5035996;28;20380;-58
2023/09/01 12:21:32;;;;;;;1.60;1.02;;;22.40;63.90;;;;;;5067157;28;20210;-58
2023/09/01 12:26:48;;;;;;;2.50;0.88;;;22.40;63.70;;;;;;5045451;28;20312;-56
2023/09/01 12:29:15;;;;;;;1.60;0.90;;;22.40;64.40;;;;;;5067439;28;20226;-57
2023/09/01 12:31:43;;;;;;;1.10;1.00;;;22.40;63.50;;;;;;5067180;28;20222;-59
2023/09/01 12:34:13;;;;;;;2.83;1.20;;;22.40;63.50;;;;;;5054472;28;20238;-58
2023/09/01 12:36:40;;;;;;;1.60;1.05;;;22.40;63.40;;;;;;5062648;28;20290;-56
2023/09/01 12:39:07;;;;;;;1.65;1.20;;;22.40;63.40;;;;;;5056669;28;21590;-59
2023/09/01 12:45:21;;;;;;;3.17;1.30;;;22.40;63.40;;;;;;5067116;28;20277;-59
2023/09/01 12:47:52;;;;;;;1.45;1.10;;;22.40;63.40;;;;;;5101639;27;20197;-58
2023/09/01 12:50:20;;;;;;;1.40;1.10;;;22.40;63.40;;;;;;5101274;27;20193;-59
2023/09/01 12:52:48;;;;;;;2.25;1.13;;;22.40;63.40;;;;;;5102557;27;20197;-60
2023/09/01 12:55:15;;;;;;;5.75;1.65;;;22.40;63.40;;;;;;5096146;28;20221;-58
2023/09/01 12:57:44;;;;;;;3.50;1.17;;;22.50;63.60;;;;;;5099957;27;20193;-54
2023/09/01 13:00:13;;;;;;;5.40;1.00;;;22.40;63.50;;;;;;5098460;27;20227;-57
2023/09/01 13:02:41;;;;;;;3.35;1.23;;;22.40;63.50;;;;;;5089904;28;20190;-57
2023/09/01 13:05:08;;;;;;;2.50;1.13;;;22.40;63.50;;;;;;5098899;28;20244;-58
2023/09/01 13:07:37;;;;;;;1.38;1.00;;;22.40;63.50;;;;;;5108178;27;20209;-57
2023/09/01 13:10:06;;;;;;;1.92;1.10;;;22.40;63.60;;;;;;5106504;27;20228;-57
2023/09/01 13:12:33;;;;;;;2.67;1.40;;;22.40;63.60;;;;;;5089200;27;20198;-52
2023/09/01 13:15:00;;;;;;;2.28;1.40;;;22.40;63.50;;;;;;5089694;28;21079;-56
2023/09/01 13:17:43;;;;;;;2.33;1.17;;;22.40;63.60;;;;;;5094166;27;20315;-57